Time;durP1;ratioP1;P1;durP2;ratioP2;P2;SDS_P1;SDS_P2;PMS_P1;PMS_P2;Temp;Humidity;BMP_temperature;BMP_pressure;BME280_temperature;BME280_humidity;BME280_pressure;Samples;Min_cycle;Max_cycle;Signal;HPM_P1;HPM_P2
2022/11/20 00:01:15;;;;;;;9.15;6.55;;;;;;;;;;5078762;28;20307;-83
2022/11/20 00:03:42;;;;;;;7.78;6.60;;;;;;;;;;5079698;28;20581;-84
2022/11/20 00:06:12;;;;;;;6.63;5.75;;;;;;;;;;5080081;28;20742;-83
2022/11/20 00:08:41;;;;;;;8.80;7.13;;;;;;;;;;5079191;28;20233;-83
2022/11/20 00:11:11;;;;;;;8.45;7.18;;;;;;;;;;5074448;28;20586;-83
2022/11/20 00:13:38;;;;;;;8.05;6.70;;;;;;;;;;5059333;28;20292;-83
2022/11/20 00:16:10;;;;;;;7.50;6.18;;;;;;;;;;5059564;28;20233;-83
2022/11/20 00:18:38;;;;;;;8.18;7.38;;;;;;;;;;5059164;28;20241;-82
2022/11/20 00:21:07;;;;;;;8.80;6.47;;;;;;;;;;5058916;28;20312;-83
2022/11/20 00:23:35;;;;;;;8.77;6.10;;;;;;;;;;5059169;28;20288;-83
2022/11/20 00:26:08;;;;;;;7.20;5.97;;;;;;;;;;5059179;28;20194;-82
2022/11/20 00:28:36;;;;;;;7.28;6.20;;;;;;;;;;5058423;28;20650;-83
2022/11/20 00:31:05;;;;;;;7.85;6.40;;;;;;;;;;5058476;28;20301;-84
2022/11/20 00:33:33;;;;;;;9.00;7.88;;;;;;;;;;5058283;28;20232;-83
2022/11/20 00:36:02;;;;;;;9.38;7.15;;;;;;;;;;5059065;28;20670;-82
2022/11/20 00:38:29;;;;;;;10.77;7.45;;;;;;;;;;5057944;28;20204;-84
2022/11/20 00:40:59;;;;;;;13.13;9.02;;;;;;;;;;5077852;28;20311;-83
2022/11/20 00:43:28;;;;;;;9.05;6.55;;;;;;;;;;5078611;28;20216;-83
2022/11/20 00:45:59;;;;;;;7.72;5.90;;;;;;;;;;5078473;28;20332;-84
2022/11/20 00:48:26;;;;;;;8.45;6.43;;;;;;;;;;5078059;28;20753;-84
2022/11/20 00:50:54;;;;;;;9.68;7.03;;;;;;;;;;5077858;28;20308;-83
2022/11/20 00:53:22;;;;;;;5.72;5.10;;;;;;;;;;5078404;28;20296;-83
2022/11/20 00:55:57;;;;;;;6.78;6.07;;;;;;;;;;5078813;28;20236;-83
2022/11/20 00:58:32;;;;;;;7.95;6.35;;;;;;;;;;5078166;28;20632;-83
2022/11/20 01:01:03;;;;;;;7.63;6.82;;;;;;;;;;5077783;28;20270;-83
2022/11/20 01:03:33;;;;;;;8.02;7.00;;;;;;;;;;5077874;28;20284;-83
2022/11/20 01:06:04;;;;;;;10.13;8.13;;;;;;;;;;5077941;28;20291;-84
2022/11/20 01:08:32;;;;;;;9.45;7.10;;;;;;;;;;5077310;28;20201;-83
2022/11/20 01:11:03;;;;;;;8.85;6.47;;;;;;;;;;5073721;28;20230;-82
2022/11/20 01:13:40;;;;;;;6.18;5.43;;;;;;;;;;5057602;28;20264;-83
2022/11/20 01:16:10;;;;;;;7.00;5.60;;;;;;;;;;5058116;28;20193;-82
2022/11/20 01:18:40;;;;;;;8.30;6.82;;;;;;;;;;5058147;28;20688;-83
2022/11/20 01:21:10;;;;;;;10.43;7.72;;;;;;;;;;5057816;28;20928;-83
2022/11/20 01:23:40;;;;;;;6.85;5.25;;;;;;;;;;5057257;28;20228;-83
2022/11/20 01:26:10;;;;;;;7.78;6.97;;;;;;;;;;5058345;28;20248;-83
2022/11/20 01:28:41;;;;;;;8.15;6.10;;;;;;;;;;5057499;28;20246;-83
2022/11/20 01:31:16;;;;;;;8.20;6.70;;;;;;;;;;5057305;28;20218;-82
2022/11/20 01:33:45;;;;;;;7.63;6.82;;;;;;;;;;5057451;28;20225;-82
2022/11/20 01:36:14;;;;;;;9.57;7.45;;;;;;;;;;5057291;28;20233;-82
2022/11/20 01:38:41;;;;;;;12.63;10.32;;;;;;;;;;5056670;28;20293;-84
2022/11/20 01:41:09;;;;;;;13.23;8.57;;;;;;;;;;5061280;28;20659;-82
2022/11/20 01:43:37;;;;;;;10.63;8.35;;;;;;;;;;5076276;28;20680;-84
2022/11/20 01:46:17;;;;;;;10.45;8.73;;;;;;;;;;5076941;28;20205;-84
2022/11/20 01:48:51;;;;;;;15.85;8.80;;;;;;;;;;5076745;28;20213;-84
2022/11/20 01:51:27;;;;;;;17.23;11.95;;;;;;;;;;5077000;28;20263;-83
2022/11/20 01:53:56;;;;;;;22.88;14.18;;;;;;;;;;5076668;28;20268;-84
2022/11/20 01:56:24;;;;;;;21.15;13.63;;;;;;;;;;5077086;28;20287;-83
2022/11/20 01:58:57;;;;;;;18.67;12.65;;;;;;;;;;5076360;28;20653;-84
2022/11/20 02:01:25;;;;;;;21.23;12.32;;;;;;;;;;5076857;28;20311;-83
2022/11/20 02:03:52;;;;;;;17.08;11.80;;;;;;;;;;5076825;28;20264;-82
2022/11/20 02:06:25;;;;;;;10.30;7.57;;;;;;;;;;5075860;28;20224;-84
2022/11/20 02:08:53;;;;;;;8.25;6.90;;;;;;;;;;5076628;28;20191;-82
2022/11/20 02:11:20;;;;;;;13.57;8.50;;;;;;;;;;5070676;28;20312;-83
2022/11/20 02:13:47;;;;;;;21.17;11.77;;;;;;;;;;5057143;28;20283;-84
2022/11/20 02:16:22;;;;;;;17.00;11.40;;;;;;;;;;5056824;28;20202;-82
2022/11/20 02:18:51;;;;;;;14.77;10.93;;;;;;;;;;5056546;28;20190;-83
2022/11/20 02:21:29;;;;;;;20.13;12.52;;;;;;;;;;5056335;28;20699;-83
2022/11/20 02:24:10;;;;;;;11.90;9.45;;;;;;;;;;5056891;28;20335;-83
2022/11/20 02:26:45;;;;;;;10.68;8.13;;;;;;;;;;5056857;28;20292;-84
2022/11/20 02:29:12;;;;;;;13.48;9.02;;;;;;;;;;5056539;28;20229;-82
2022/11/20 02:31:43;;;;;;;14.15;10.80;;;;;;;;;;5055608;28;20303;-84
2022/11/20 02:34:10;;;;;;;12.90;10.43;;;;;;;;;;5056912;28;20690;-84
2022/11/20 02:36:40;;;;;;;13.43;10.15;;;;;;;;;;5056388;28;20302;-83
2022/11/20 02:39:10;;;;;;;10.07;8.45;;;;;;;;;;5056342;28;20665;-82
2022/11/20 02:41:39;;;;;;;13.05;10.38;;;;;;;;;;5064581;28;20647;-83
2022/11/20 02:44:07;;;;;;;16.80;11.57;;;;;;;;;;5076458;28;20323;-84
2022/11/20 02:46:35;;;;;;;10.63;8.35;;;;;;;;;;5074787;28;20201;-83
2022/11/20 02:49:03;;;;;;;12.88;10.50;;;;;;;;;;5074156;28;20716;-82
2022/11/20 02:51:31;;;;;;;16.38;9.77;;;;;;;;;;5074660;28;20221;-83
2022/11/20 02:53:59;;;;;;;11.70;9.35;;;;;;;;;;5076022;28;20681;-83
2022/11/20 02:56:28;;;;;;;11.40;9.70;;;;;;;;;;5075056;28;20288;-83
2022/11/20 02:58:56;;;;;;;15.25;9.70;;;;;;;;;;5075627;28;20378;-84
2022/11/20 03:01:23;;;;;;;13.15;9.45;;;;;;;;;;5075553;28;20262;-83
2022/11/20 03:03:53;;;;;;;18.05;11.25;;;;;;;;;;5075683;28;20233;-84
2022/11/20 03:06:21;;;;;;;13.55;9.95;;;;;;;;;;5075783;28;20201;-83
2022/11/20 03:08:48;;;;;;;12.60;7.18;;;;;;;;;;5075235;28;20292;-84
2022/11/20 03:11:16;;;;;;;13.90;9.35;;;;;;;;;;5069794;28;20308;-84
2022/11/20 03:13:45;;;;;;;12.07;8.27;;;;;;;;;;5055704;28;20209;-84
2022/11/20 03:16:15;;;;;;;8.52;7.32;;;;;;;;;;5055491;28;20255;-84
2022/11/20 03:18:44;;;;;;;7.43;6.22;;;;;;;;;;5055573;28;20336;-82
2022/11/20 03:21:13;;;;;;;9.35;6.95;;;;;;;;;;5055158;28;20379;-83
2022/11/20 03:23:42;;;;;;;8.60;6.10;;;;;;;;;;5055951;28;20267;-84
2022/11/20 03:26:11;;;;;;;15.38;8.75;;;;;;;;;;5055796;28;20654;-83
2022/11/20 03:28:39;;;;;;;15.55;10.75;;;;;;;;;;5055492;28;20292;-83
2022/11/20 03:31:11;;;;;;;11.23;7.30;;;;;;;;;;5056180;28;20316;-82
2022/11/20 03:33:39;;;;;;;9.43;7.43;;;;;;;;;;5055661;28;20646;-83
2022/11/20 03:36:09;;;;;;;9.55;8.15;;;;;;;;;;5055792;28;20296;-82
2022/11/20 03:38:37;;;;;;;10.93;8.43;;;;;;;;;;5054944;28;20288;-82
2022/11/20 03:41:07;;;;;;;9.85;8.65;;;;;;;;;;5059288;28;20256;-81
2022/11/20 03:43:35;;;;;;;6.47;5.47;;;;;;;;;;5076107;28;20281;-82
2022/11/20 03:46:03;;;;;;;6.93;6.13;;;;;;;;;;5075642;28;20239;-84
2022/11/20 03:48:32;;;;;;;13.35;9.27;;;;;;;;;;5075301;28;20684;-83
2022/11/20 03:51:10;;;;;;;13.50;8.95;;;;;;;;;;5075838;28;20304;-83
2022/11/20 03:53:38;;;;;;;8.52;7.15;;;;;;;;;;5076261;28;20212;-84
2022/11/20 03:56:07;;;;;;;8.43;6.25;;;;;;;;;;5075774;28;20243;-82
2022/11/20 03:58:35;;;;;;;7.60;5.40;;;;;;;;;;5076033;28;20686;-83
2022/11/20 04:01:07;;;;;;;6.60;5.85;;;;;;;;;;5075572;28;20258;-83
2022/11/20 04:03:36;;;;;;;7.38;4.97;;;;;;;;;;5074435;28;20587;-82
2022/11/20 04:06:06;;;;;;;5.88;5.28;;;;;;;;;;5075250;28;20733;-83
2022/11/20 04:08:34;;;;;;;4.88;4.10;;;;;;;;;;5077916;28;20291;-83
2022/11/20 04:11:16;;;;;;;6.47;5.07;;;;;;;;;;5075071;28;20232;-82
2022/11/20 04:13:47;;;;;;;7.30;6.38;;;;;;;;;;5059117;28;20688;-81
2022/11/20 04:16:15;;;;;;;9.40;6.90;;;;;;;;;;5059329;28;20265;-83
2022/11/20 04:18:44;;;;;;;9.07;5.85;;;;;;;;;;5058645;28;20233;-83
2022/11/20 04:21:12;;;;;;;11.57;8.95;;;;;;;;;;5058691;28;20658;-82
2022/11/20 04:23:40;;;;;;;9.48;6.43;;;;;;;;;;5059384;28;20749;-83
2022/11/20 04:26:10;;;;;;;10.23;8.15;;;;;;;;;;5058855;28;20737;-81
2022/11/20 04:28:38;;;;;;;16.90;11.05;;;;;;;;;;5058014;28;20284;-83
2022/11/20 04:31:08;;;;;;;12.75;8.75;;;;;;;;;;5058804;28;20309;-82
2022/11/20 04:33:37;;;;;;;16.05;11.30;;;;;;;;;;5058722;28;20186;-82
2022/11/20 04:36:09;;;;;;;13.68;10.15;;;;;;;;;;5059039;28;20209;-83
2022/11/20 04:38:36;;;;;;;14.90;9.98;;;;;;;;;;5058232;28;20355;-83
2022/11/20 04:41:06;;;;;;;17.55;12.10;;;;;;;;;;5058027;28;20312;-83
2022/11/20 04:43:35;;;;;;;19.40;12.32;;;;;;;;;;5057915;28;20344;-83
2022/11/20 04:46:03;;;;;;;17.13;11.63;;;;;;;;;;5057986;28;20198;-82
2022/11/20 04:48:31;;;;;;;12.60;8.57;;;;;;;;;;5057166;28;20326;-82
2022/11/20 04:50:58;;;;;;;16.65;10.63;;;;;;;;;;5057528;28;20228;-83
2022/11/20 04:53:27;;;;;;;12.90;10.30;;;;;;;;;;5058072;28;20288;-83
2022/11/20 04:56:01;;;;;;;12.75;9.85;;;;;;;;;;5056053;28;20202;-83
2022/11/20 04:58:29;;;;;;;13.27;9.52;;;;;;;;;;5055877;28;20189;-83
2022/11/20 05:01:03;;;;;;;11.82;8.75;;;;;;;;;;5057777;28;20245;-82
2022/11/20 05:03:31;;;;;;;12.68;9.07;;;;;;;;;;5057883;28;20799;-83
2022/11/20 05:06:02;;;;;;;10.45;8.82;;;;;;;;;;5057950;28;20662;-83
2022/11/20 05:08:31;;;;;;;11.23;7.82;;;;;;;;;;5057476;28;20226;-82
2022/11/20 05:11:02;;;;;;;11.75;8.77;;;;;;;;;;5060260;28;20264;-84
2022/11/20 05:13:30;;;;;;;14.52;8.95;;;;;;;;;;5077645;28;20232;-84
2022/11/20 05:16:03;;;;;;;17.02;10.00;;;;;;;;;;5078085;28;20657;-83
2022/11/20 05:18:30;;;;;;;14.77;8.90;;;;;;;;;;5076327;28;20292;-84
2022/11/20 05:20:58;;;;;;;14.20;9.88;;;;;;;;;;5079905;22;20324;-83
2022/11/20 05:23:26;;;;;;;17.50;11.27;;;;;;;;;;5060983;28;20257;-84
2022/11/20 05:25:56;;;;;;;17.77;11.93;;;;;;;;;;5061933;28;20229;-83
2022/11/20 05:28:24;;;;;;;19.25;12.32;;;;;;;;;;5061707;28;20621;-83
2022/11/20 05:30:52;;;;;;;17.85;12.23;;;;;;;;;;5061914;28;20257;-83
2022/11/20 05:33:20;;;;;;;16.17;11.40;;;;;;;;;;5061803;28;20217;-83
2022/11/20 05:35:48;;;;;;;13.45;11.00;;;;;;;;;;5061806;28;20576;-82
2022/11/20 05:38:16;;;;;;;15.60;11.43;;;;;;;;;;5061965;28;20205;-83
2022/11/20 05:40:43;;;;;;;21.73;11.77;;;;;;;;;;5062099;28;20268;-83
2022/11/20 05:43:12;;;;;;;17.48;11.98;;;;;;;;;;5071139;28;20271;-82
2022/11/20 05:45:39;;;;;;;12.63;8.30;;;;;;;;;;5062584;28;20727;-82
2022/11/20 05:48:07;;;;;;;12.32;9.32;;;;;;;;;;5062522;28;20233;-82
2022/11/20 05:50:34;;;;;;;19.48;12.45;;;;;;;;;;5063020;28;20309;-83
2022/11/20 05:53:02;;;;;;;19.63;12.50;;;;;;;;;;5062968;28;20239;-82
2022/11/20 05:55:30;;;;;;;15.02;9.88;;;;;;;;;;5062365;28;20643;-82
2022/11/20 05:57:57;;;;;;;11.32;8.32;;;;;;;;;;5063218;28;20211;-82
2022/11/20 06:00:26;;;;;;;12.15;8.95;;;;;;;;;;5062435;28;20694;-82
2022/11/20 06:02:53;;;;;;;14.93;10.40;;;;;;;;;;5062743;28;20253;-83
2022/11/20 06:05:21;;;;;;;20.35;14.60;;;;;;;;;;5061990;28;20294;-83
2022/11/20 06:07:48;;;;;;;13.45;9.73;;;;;;;;;;5061931;28;20206;-82
2022/11/20 06:10:16;;;;;;;16.08;10.82;;;;;;;;;;5061787;28;20229;-83
2022/11/20 06:12:43;;;;;;;14.00;9.63;;;;;;;;;;5079779;28;20237;-83
2022/11/20 06:15:11;;;;;;;9.90;7.32;;;;;;;;;;5082655;28;20235;-83
2022/11/20 06:17:40;;;;;;;10.63;7.18;;;;;;;;;;5083559;28;20814;-83
2022/11/20 06:20:09;;;;;;;14.27;9.98;;;;;;;;;;5075474;28;20232;-82
2022/11/20 06:22:37;;;;;;;14.35;10.18;;;;;;;;;;5062170;28;20288;-83
2022/11/20 06:25:05;;;;;;;12.20;8.50;;;;;;;;;;5063187;28;20960;-82
2022/11/20 06:27:32;;;;;;;13.05;9.63;;;;;;;;;;5062718;28;20232;-82
2022/11/20 06:30:00;;;;;;;10.05;6.82;;;;;;;;;;5061729;28;20201;-83
2022/11/20 06:32:27;;;;;;;10.60;6.82;;;;;;;;;;5062248;28;20244;-82
2022/11/20 06:34:56;;;;;;;10.70;8.65;;;;;;;;;;5062833;28;20224;-81
2022/11/20 06:37:24;;;;;;;6.50;5.68;;;;;;;;;;5061327;28;20265;-82
2022/11/20 06:39:51;;;;;;;8.10;6.93;;;;;;;;;;5060797;28;20261;-81
2022/11/20 06:42:19;;;;;;;15.07;8.35;;;;;;;;;;5074609;28;20275;-82
2022/11/20 06:44:46;;;;;;;10.98;7.50;;;;;;;;;;5082459;28;20216;-81
2022/11/20 06:47:14;;;;;;;8.45;6.43;;;;;;;;;;5082983;28;20204;-82
2022/11/20 06:49:41;;;;;;;9.75;6.53;;;;;;;;;;5081522;28;20236;-81
2022/11/20 06:52:10;;;;;;;9.18;7.30;;;;;;;;;;5073307;28;20558;-81
2022/11/20 06:54:38;;;;;;;8.05;6.10;;;;;;;;;;5061078;28;20205;-82
2022/11/20 06:57:05;;;;;;;6.63;5.85;;;;;;;;;;5061147;28;20653;-81
2022/11/20 06:59:33;;;;;;;10.23;7.00;;;;;;;;;;5060522;28;20209;-82
2022/11/20 07:02:01;;;;;;;16.15;9.52;;;;;;;;;;5061180;28;20249;-83
2022/11/20 07:04:28;;;;;;;12.48;8.07;;;;;;;;;;5062248;28;20221;-83
2022/11/20 07:06:56;;;;;;;14.27;10.35;;;;;;;;;;5061163;28;20233;-82
2022/11/20 07:09:24;;;;;;;14.45;9.15;;;;;;;;;;5061796;28;20205;-82
2022/11/20 07:11:52;;;;;;;18.73;10.77;;;;;;;;;;5072004;28;20225;-82
2022/11/20 07:14:19;;;;;;;18.15;10.48;;;;;;;;;;5081835;28;20221;-83
2022/11/20 07:16:47;;;;;;;13.77;10.30;;;;;;;;;;5081795;28;20232;-82
2022/11/20 07:19:14;;;;;;;18.17;10.85;;;;;;;;;;5079953;28;20236;-83
2022/11/20 07:21:42;;;;;;;13.13;9.70;;;;;;;;;;5081232;28;20283;-83
2022/11/20 07:24:09;;;;;;;12.65;9.35;;;;;;;;;;5080591;28;20256;-82
2022/11/20 07:26:38;;;;;;;12.48;7.97;;;;;;;;;;5075077;28;20312;-83
2022/11/20 07:29:06;;;;;;;11.82;7.80;;;;;;;;;;5068040;28;20234;-82
2022/11/20 07:31:33;;;;;;;9.27;6.13;;;;;;;;;;5080367;28;20538;-83
2022/11/20 07:34:01;;;;;;;8.20;6.75;;;;;;;;;;5081415;28;20228;-82
2022/11/20 07:36:28;;;;;;;10.48;8.40;;;;;;;;;;5081477;28;20634;-82
2022/11/20 07:38:56;;;;;;;10.50;7.55;;;;;;;;;;5080139;28;20672;-80
2022/11/20 07:41:23;;;;;;;12.50;7.30;;;;;;;;;;5079519;28;20705;-81
2022/11/20 07:43:52;;;;;;;12.10;6.97;;;;;;;;;;5083500;28;20288;-81
2022/11/20 07:46:20;;;;;;;8.40;5.60;;;;;;;;;;5084372;28;20232;-82
2022/11/20 07:48:47;;;;;;;8.55;7.53;;;;;;;;;;5084311;28;20258;-81
2022/11/20 07:51:15;;;;;;;7.75;5.88;;;;;;;;;;5084607;28;20256;-83
2022/11/20 07:53:42;;;;;;;6.90;5.63;;;;;;;;;;5084863;28;20197;-81
2022/11/20 07:56:10;;;;;;;9.55;7.25;;;;;;;;;;5083947;28;20239;-81
2022/11/20 07:58:37;;;;;;;9.05;7.05;;;;;;;;;;5084475;28;20200;-81
2022/11/20 08:01:07;;;;;;;6.25;5.28;;;;;;;;;;5084192;28;20309;-82
2022/11/20 08:03:37;;;;;;;6.60;5.53;;;;;;;;;;5084985;28;20228;-82
2022/11/20 08:06:06;;;;;;;7.57;5.95;;;;;;;;;;5085480;28;20212;-82
2022/11/20 08:08:33;;;;;;;6.30;5.15;;;;;;;;;;5084334;28;20297;-82
2022/11/20 08:16:37;;;;;;;13.55;8.88;;;;;;;;;;5047401;28;20193;-84
2022/11/20 08:19:05;;;;;;;15.45;10.98;;;;;;;;;;5084521;28;20329;-82
2022/11/20 08:21:33;;;;;;;15.55;11.30;;;;;;;;;;5085418;28;20261;-83
2022/11/20 08:24:00;;;;;;;15.60;9.90;;;;;;;;;;5085591;28;20265;-83
2022/11/20 08:26:28;;;;;;;5.75;4.53;;;;;;;;;;5082725;28;20283;-82
2022/11/20 08:28:56;;;;;;;9.10;7.45;;;;;;;;;;5082463;28;20260;-83
2022/11/20 08:31:25;;;;;;;8.50;6.97;;;;;;;;;;5083682;28;20256;-83
2022/11/20 08:33:54;;;;;;;12.85;9.23;;;;;;;;;;5083764;28;20684;-83
2022/11/20 08:36:23;;;;;;;11.40;7.90;;;;;;;;;;5083948;28;20232;-84
2022/11/20 08:38:52;;;;;;;16.90;10.75;;;;;;;;;;5082324;28;20240;-84
2022/11/20 08:41:26;;;;;;;11.52;8.50;;;;;;;;;;5075945;28;20255;-84
2022/11/20 08:43:56;;;;;;;7.43;6.30;;;;;;;;;;5061971;28;20207;-83
2022/11/20 08:46:25;;;;;;;11.52;8.23;;;;;;;;;;5062882;28;20790;-83
2022/11/20 08:48:54;;;;;;;9.32;7.15;;;;;;;;;;5062317;28;20208;-84
2022/11/20 08:51:22;;;;;;;7.93;6.00;;;;;;;;;;5063075;28;20307;-82
2022/11/20 08:53:49;;;;;;;7.78;5.90;;;;;;;;;;5063552;28;20698;-83
2022/11/20 08:56:18;;;;;;;9.27;7.20;;;;;;;;;;5063056;28;20202;-82
2022/11/20 08:58:45;;;;;;;11.73;9.15;;;;;;;;;;5062764;28;20285;-83
2022/11/20 09:01:13;;;;;;;11.77;8.40;;;;;;;;;;5062932;28;20221;-84
2022/11/20 09:03:41;;;;;;;9.75;7.55;;;;;;;;;;5062882;28;20642;-84
2022/11/20 09:06:11;;;;;;;10.05;7.00;;;;;;;;;;5063521;28;20291;-83
2022/11/20 09:08:39;;;;;;;7.65;6.00;;;;;;;;;;5063297;28;20638;-83
2022/11/20 09:11:07;;;;;;;9.20;6.43;;;;;;;;;;5063130;28;20604;-84
2022/11/20 09:13:36;;;;;;;7.32;5.22;;;;;;;;;;5063478;28;20233;-83
2022/11/20 09:16:06;;;;;;;9.98;7.10;;;;;;;;;;5063502;28;20285;-83
2022/11/20 09:18:35;;;;;;;8.35;5.90;;;;;;;;;;5062803;28;20429;-84
2022/11/20 09:21:05;;;;;;;14.55;9.90;;;;;;;;;;5063221;28;20257;-83
2022/11/20 09:23:36;;;;;;;12.90;9.35;;;;;;;;;;5076061;28;20239;-82
2022/11/20 09:26:05;;;;;;;8.68;7.15;;;;;;;;;;5082380;28;20251;-83
2022/11/20 09:28:33;;;;;;;9.45;7.13;;;;;;;;;;5083092;28;20217;-82
2022/11/20 09:31:00;;;;;;;10.45;6.63;;;;;;;;;;5083524;28;20224;-84
2022/11/20 09:33:28;;;;;;;11.10;8.13;;;;;;;;;;5083102;28;20205;-84
2022/11/20 09:35:56;;;;;;;7.43;5.90;;;;;;;;;;5083382;28;20236;-82
2022/11/20 09:38:23;;;;;;;10.30;7.63;;;;;;;;;;5083715;28;20236;-84
2022/11/20 09:40:58;;;;;;;13.10;9.55;;;;;;;;;;5082808;28;20362;-85
2022/11/20 09:43:38;;;;;;;10.50;9.10;;;;;;;;;;5084301;28;20291;-84
2022/11/20 09:46:12;;;;;;;8.85;7.28;;;;;;;;;;5083120;28;20263;-84
2022/11/20 09:48:55;;;;;;;8.10;7.28;;;;;;;;;;5085977;28;20192;-84
2022/11/20 09:51:36;;;;;;;9.98;7.60;;;;;;;;;;5086353;28;20221;-83
2022/11/20 09:54:15;;;;;;;10.60;8.23;;;;;;;;;;5088348;28;20658;-83
2022/11/20 09:56:47;;;;;;;10.75;8.18;;;;;;;;;;5090646;28;20665;-83
2022/11/20 09:59:29;;;;;;;10.20;7.90;;;;;;;;;;5089669;28;20300;-84
2022/11/20 10:01:57;;;;;;;9.95;7.72;;;;;;;;;;5090507;28;20247;-83
2022/11/20 10:04:25;;;;;;;9.40;8.38;;;;;;;;;;5085142;28;20260;-84
2022/11/20 10:06:57;;;;;;;9.57;7.43;;;;;;;;;;5084822;28;20225;-84
2022/11/20 10:09:32;;;;;;;7.35;6.53;;;;;;;;;;5087008;28;20256;-85
2022/11/20 10:12:12;;;;;;;15.40;10.80;;;;;;;;;;5086210;28;20251;-85
2022/11/20 10:14:54;;;;;;;17.30;11.40;;;;;;;;;;5086574;28;20704;-84
2022/11/20 10:17:39;;;;;;;9.80;8.77;;;;;;;;;;5088626;28;20240;-85
2022/11/20 10:20:20;;;;;;;9.57;7.38;;;;;;;;;;5087891;28;20201;-84
2022/11/20 10:23:08;;;;;;;10.50;8.18;;;;;;;;;;5086291;28;20205;-83
2022/11/20 10:25:40;;;;;;;9.32;8.15;;;;;;;;;;5085730;28;20278;-84
2022/11/20 10:28:38;;;;;;;8.70;6.97;;;;;;;;;;5085626;28;20201;-84
2022/11/20 10:31:11;;;;;;;8.00;7.05;;;;;;;;;;5084655;28;20244;-84
2022/11/20 10:33:41;;;;;;;10.52;9.43;;;;;;;;;;5089649;28;20207;-84
2022/11/20 10:36:17;;;;;;;19.92;12.75;;;;;;;;;;5091330;28;20208;-85
2022/11/20 10:38:49;;;;;;;16.17;10.82;;;;;;;;;;5090495;28;20299;-84
2022/11/20 10:41:27;;;;;;;13.10;9.77;;;;;;;;;;5086578;28;20244;-82
2022/11/20 10:44:04;;;;;;;12.57;8.85;;;;;;;;;;5089960;28;20185;-83
2022/11/20 10:46:39;;;;;;;17.98;12.43;;;;;;;;;;5086161;28;20375;-84
2022/11/20 10:49:14;;;;;;;20.00;13.52;;;;;;;;;;5086984;28;20228;-83
2022/11/20 10:51:53;;;;;;;15.43;10.70;;;;;;;;;;5088200;28;20231;-84
2022/11/20 10:54:30;;;;;;;13.05;10.88;;;;;;;;;;5086887;28;20207;-85
2022/11/20 10:57:03;;;;;;;11.73;9.13;;;;;;;;;;5086709;28;20770;-84
2022/11/20 11:00:02;;;;;;;12.15;9.98;;;;;;;;;;5087376;28;20201;-83
2022/11/20 11:02:40;;;;;;;12.23;8.65;;;;;;;;;;5090175;28;20197;-85
2022/11/20 11:05:18;;;;;;;12.75;8.35;;;;;;;;;;5086496;28;20205;-84
2022/11/20 11:07:46;;;;;;;20.63;10.90;;;;;;;;;;5085697;28;20287;-84
2022/11/20 11:10:21;;;;;;;17.23;12.25;;;;;;;;;;5085567;28;20220;-85
2022/11/20 11:12:49;;;;;;;15.82;11.20;;;;;;;;;;5085980;28;20201;-84
2022/11/20 11:15:29;;;;;;;15.55;11.65;;;;;;;;;;5085348;28;20649;-85
2022/11/20 11:17:57;;;;;;;13.27;10.27;;;;;;;;;;5090115;28;20213;-84
2022/11/20 11:20:27;;;;;;;16.33;12.57;;;;;;;;;;5092760;28;20688;-84
2022/11/20 11:22:56;;;;;;;12.25;9.35;;;;;;;;;;5079945;28;20235;-85
2022/11/20 11:25:33;;;;;;;15.27;11.02;;;;;;;;;;5087209;28;20225;-85
2022/11/20 11:28:03;;;;;;;13.55;9.50;;;;;;;;;;5084041;28;20535;-80
2022/11/20 11:30:43;;;;;;;12.20;9.93;;;;;;;;;;5080448;28;20301;-84
2022/11/20 11:33:18;;;;;;;9.55;8.18;;;;;;;;;;5081352;28;20220;-84
2022/11/20 11:35:48;;;;;;;13.77;10.43;;;;;;;;;;5080994;28;20634;-83
2022/11/20 11:38:20;;;;;;;11.32;9.27;;;;;;;;;;5079287;28;20288;-83
2022/11/20 11:40:48;;;;;;;9.90;8.90;;;;;;;;;;5078195;28;20252;-84
2022/11/20 11:46:28;;;;;;;9.70;7.82;;;;;;;;;;5060212;28;20831;-84
2022/11/20 11:49:00;;;;;;;11.00;8.48;;;;;;;;;;5059917;28;20781;-85
2022/11/20 11:51:34;;;;;;;14.40;10.52;;;;;;;;;;5060493;28;20311;-82
2022/11/20 11:54:02;;;;;;;14.95;11.48;;;;;;;;;;5059871;28;20201;-83
2022/11/20 11:56:30;;;;;;;11.50;9.98;;;;;;;;;;5060384;28;20707;-82
2022/11/20 11:59:00;;;;;;;17.92;11.75;;;;;;;;;;5059153;28;20293;-84
2022/11/20 12:01:33;;;;;;;12.02;9.88;;;;;;;;;;5060063;28;20244;-83
2022/11/20 12:04:06;;;;;;;12.55;10.10;;;;;;;;;;5060438;28;20225;-83
2022/11/20 12:06:35;;;;;;;13.07;9.25;;;;;;;;;;5060100;28;20304;-85
2022/11/20 12:09:06;;;;;;;12.00;8.55;;;;;;;;;;5060367;28;20193;-83
2022/11/20 12:11:41;;;;;;;14.38;10.25;;;;;;;;;;5068106;28;20224;-84
2022/11/20 12:14:15;;;;;;;16.52;12.90;;;;;;;;;;5079980;28;20231;-84
2022/11/20 12:16:44;;;;;;;16.92;12.30;;;;;;;;;;5080810;28;20695;-83
2022/11/20 12:19:14;;;;;;;13.75;11.18;;;;;;;;;;5079891;28;20292;-83
2022/11/20 12:21:54;;;;;;;11.05;9.65;;;;;;;;;;5079953;28;20282;-83
2022/11/20 12:24:41;;;;;;;11.32;9.20;;;;;;;;;;5079247;28;20632;-83
2022/11/20 12:27:45;;;;;;;13.02;10.40;;;;;;;;;;5079076;28;20304;-83
2022/11/20 12:30:14;;;;;;;18.20;12.68;;;;;;;;;;5079048;28;20181;-83
2022/11/20 12:33:05;;;;;;;14.32;10.73;;;;;;;;;;5079174;28;20238;-83
2022/11/20 12:35:59;;;;;;;18.65;12.70;;;;;;;;;;5079501;28;20737;-82
2022/11/20 12:38:59;;;;;;;17.05;12.15;;;;;;;;;;5076086;28;20197;-81
2022/11/20 12:45:12;;;;;;;17.25;12.55;;;;;;;;;;5080566;28;20203;-84
2022/11/20 12:48:00;;;;;;;15.88;12.45;;;;;;;;;;5047000;28;20323;-84
2022/11/20 12:50:39;;;;;;;15.43;11.95;;;;;;;;;;5079851;28;20305;-84
2022/11/20 12:53:14;;;;;;;18.40;13.73;;;;;;;;;;5079829;28;20189;-84
2022/11/20 12:55:50;;;;;;;12.05;10.23;;;;;;;;;;5079276;28;20224;-84
2022/11/20 12:58:26;;;;;;;11.88;8.77;;;;;;;;;;5079276;28;20268;-83
2022/11/20 13:00:59;;;;;;;10.68;8.07;;;;;;;;;;5078890;28;20311;-82
2022/11/20 13:03:40;;;;;;;8.85;7.30;;;;;;;;;;5079408;28;20816;-84
2022/11/20 13:06:14;;;;;;;20.05;13.23;;;;;;;;;;5079368;28;20189;-83
2022/11/20 13:08:44;;;;;;;13.75;10.63;;;;;;;;;;5079308;28;20299;-84
2022/11/20 13:11:18;;;;;;;19.73;14.02;;;;;;;;;;5072756;28;20257;-83
2022/11/20 13:14:09;;;;;;;21.08;15.48;;;;;;;;;;5058021;28;20249;-84
2022/11/20 13:16:42;;;;;;;10.88;9.20;;;;;;;;;;5058992;28;20277;-84
2022/11/20 13:19:17;;;;;;;12.07;8.75;;;;;;;;;;5058874;28;20186;-83
2022/11/20 13:21:48;;;;;;;13.25;9.68;;;;;;;;;;5058734;28;20248;-85
2022/11/20 13:24:29;;;;;;;13.50;9.60;;;;;;;;;;5058789;28;20193;-84
2022/11/20 13:27:21;;;;;;;8.90;8.00;;;;;;;;;;5058591;28;20204;-85
2022/11/20 13:30:13;;;;;;;11.10;9.68;;;;;;;;;;5058896;28;20655;-85
2022/11/20 13:32:50;;;;;;;9.30;8.27;;;;;;;;;;5060181;28;20225;-85
2022/11/20 13:35:32;;;;;;;8.73;7.85;;;;;;;;;;5059587;28;20229;-85
2022/11/20 13:38:11;;;;;;;12.65;8.48;;;;;;;;;;5059219;28;20182;-84
2022/11/20 13:40:40;;;;;;;8.38;7.47;;;;;;;;;;5059154;28;20733;-83
2022/11/20 13:43:23;;;;;;;10.20;8.20;;;;;;;;;;5078266;28;20201;-85
2022/11/20 13:46:02;;;;;;;9.95;8.38;;;;;;;;;;5077895;28;20724;-84
2022/11/20 13:48:33;;;;;;;11.13;8.25;;;;;;;;;;5079440;28;20241;-85
2022/11/20 13:51:14;;;;;;;10.77;8.27;;;;;;;;;;5081867;28;20284;-85
2022/11/20 13:54:19;;;;;;;8.25;7.45;;;;;;;;;;5080380;28;20267;-83
2022/11/20 13:57:00;;;;;;;8.55;7.65;;;;;;;;;;5079997;28;20236;-84
2022/11/20 13:59:46;;;;;;;7.35;6.65;;;;;;;;;;5080451;28;20527;-85
2022/11/20 14:02:16;;;;;;;7.50;6.57;;;;;;;;;;5080652;28;20220;-84
2022/11/20 14:04:47;;;;;;;8.35;6.63;;;;;;;;;;5080032;28;20276;-84
2022/11/20 14:07:17;;;;;;;7.85;6.60;;;;;;;;;;5080464;28;20186;-84
2022/11/20 14:09:53;;;;;;;10.77;7.88;;;;;;;;;;5079933;28;20283;-85
2022/11/20 14:12:23;;;;;;;8.60;7.45;;;;;;;;;;5065817;28;20874;-86
2022/11/20 14:14:53;;;;;;;8.63;6.45;;;;;;;;;;5059013;28;20229;-85
2022/11/20 14:17:23;;;;;;;9.27;6.93;;;;;;;;;;5059736;28;20265;-85
2022/11/20 14:19:52;;;;;;;8.55;7.60;;;;;;;;;;5058588;28;20666;-85
2022/11/20 14:22:24;;;;;;;10.63;7.15;;;;;;;;;;5057988;28;20240;-85
2022/11/20 14:25:07;;;;;;;7.80;6.80;;;;;;;;;;5058353;28;20205;-83
2022/11/20 14:27:39;;;;;;;7.32;6.40;;;;;;;;;;5058585;28;20658;-85
2022/11/20 14:30:13;;;;;;;7.07;6.38;;;;;;;;;;5059073;28;20213;-84
2022/11/20 14:32:40;;;;;;;8.55;7.72;;;;;;;;;;5058983;28;20186;-85
2022/11/20 14:35:11;;;;;;;6.63;6.03;;;;;;;;;;5058307;28;20273;-85
2022/11/20 14:37:41;;;;;;;11.73;8.65;;;;;;;;;;5058570;28;20673;-85
2022/11/20 14:40:26;;;;;;;7.90;7.15;;;;;;;;;;5058366;28;20283;-82
2022/11/20 14:42:53;;;;;;;13.93;8.65;;;;;;;;;;5077380;28;20299;-85
2022/11/20 14:45:21;;;;;;;10.73;8.30;;;;;;;;;;5080607;28;20288;-85
2022/11/20 14:47:49;;;;;;;8.90;7.47;;;;;;;;;;5077593;28;20240;-84
2022/11/20 14:50:24;;;;;;;10.85;9.27;;;;;;;;;;5077233;28;20228;-85
2022/11/20 14:52:55;;;;;;;6.35;5.72;;;;;;;;;;5077537;28;20188;-86
2022/11/20 14:55:31;;;;;;;7.18;5.82;;;;;;;;;;5077160;28;20197;-85
2022/11/20 14:58:02;;;;;;;6.75;6.05;;;;;;;;;;5078114;28;20181;-85
2022/11/20 15:00:31;;;;;;;9.68;7.50;;;;;;;;;;5078074;28;20221;-85
2022/11/20 15:02:59;;;;;;;6.47;5.30;;;;;;;;;;5077582;28;20193;-85
2022/11/20 15:05:43;;;;;;;6.25;5.63;;;;;;;;;;5078257;28;20236;-84
2022/11/20 15:08:13;;;;;;;6.32;5.57;;;;;;;;;;5077770;28;20292;-85